Time;durP1;ratioP1;P1;durP2;ratioP2;P2;SDS_P1;SDS_P2;PMS_P1;PMS_P2;Temp;Humidity;BMP_temperature;BMP_pressure;BME280_temperature;BME280_humidity;BME280_pressure;Samples;Min_cycle;Max_cycle;Signal;HPM_P1;HPM_P2
2021/09/05 00:01:07;;;;;;;0.70;0.62;;;12.80;99.90;;;;;;4431876;32;20061;-78
2021/09/05 00:03:32;;;;;;;0.82;0.80;;;12.80;99.90;;;;;;4432956;32;20085;-79
2021/09/05 00:05:59;;;;;;;0.82;0.60;;;12.70;99.90;;;;;;4432145;32;20062;-79
2021/09/05 00:08:26;;;;;;;0.37;0.37;;;12.60;99.90;;;;;;4432772;32;20100;-79
2021/09/05 00:10:51;;;;;;;1.90;1.23;;;12.60;99.90;;;;;;4432651;32;20081;-79
2021/09/05 00:13:17;;;;;;;2.03;0.68;;;12.60;99.90;;;;;;4431929;32;20069;-79
2021/09/05 00:15:42;;;;;;;2.30;0.85;;;12.50;99.90;;;;;;4431514;32;20069;-78
2021/09/05 00:18:08;;;;;;;0.40;0.40;;;12.40;99.90;;;;;;4432109;32;20082;-78
2021/09/05 00:20:34;;;;;;;3.30;0.90;;;12.40;99.90;;;;;;4424142;32;20441;-78
2021/09/05 00:23:03;;;;;;;0.70;0.70;;;12.40;99.90;;;;;;4432285;32;20514;-79
2021/09/05 00:25:30;;;;;;;0.40;0.40;;;12.30;99.90;;;;;;4431107;32;20084;-78
2021/09/05 00:27:55;;;;;;;1.45;1.05;;;12.30;99.90;;;;;;4432663;32;20069;-78
2021/09/05 00:30:21;;;;;;;1.17;0.90;;;12.40;99.90;;;;;;4417012;32;20123;-79
2021/09/05 00:32:46;;;;;;;0.85;0.60;;;12.50;99.90;;;;;;4431230;32;20454;-79
2021/09/05 00:35:12;;;;;;;0.70;0.70;;;12.50;99.90;;;;;;4431137;32;20060;-79
2021/09/05 00:37:37;;;;;;;4.78;0.73;;;12.50;99.90;;;;;;4417850;32;20073;-79
2021/09/05 00:40:04;;;;;;;3.45;1.30;;;12.50;99.90;;;;;;4431524;32;20066;-78
2021/09/05 00:42:29;;;;;;;0.37;0.37;;;12.40;99.90;;;;;;4430449;32;20531;-78
2021/09/05 00:44:55;;;;;;;1.75;0.60;;;12.40;99.90;;;;;;4430544;32;20066;-79
2021/09/05 00:47:20;;;;;;;0.68;0.68;;;12.40;99.90;;;;;;4431197;32;20069;-78
2021/09/05 00:49:47;;;;;;;5.32;1.70;;;12.30;99.90;;;;;;4430483;32;20077;-79
2021/09/05 00:52:13;;;;;;;4.40;1.42;;;12.30;99.90;;;;;;4430809;32;20077;-79
2021/09/05 00:54:42;;;;;;;5.40;1.42;;;12.30;99.90;;;;;;4430676;32;20505;-79
2021/09/05 00:57:16;;;;;;;0.57;0.57;;;12.40;99.90;;;;;;4432195;32;20077;-79
2021/09/05 00:59:45;;;;;;;0.40;0.40;;;12.30;99.90;;;;;;4430687;32;20069;-79
2021/09/05 01:02:10;;;;;;;1.42;1.05;;;12.20;99.90;;;;;;4431740;32;20112;-78
2021/09/05 01:04:36;;;;;;;2.92;0.93;;;12.20;99.90;;;;;;4430404;32;20569;-79
2021/09/05 01:07:03;;;;;;;6.07;1.52;;;12.20;99.90;;;;;;4431311;32;20116;-79
2021/09/05 01:09:29;;;;;;;0.85;0.85;;;12.20;99.90;;;;;;4424436;32;20088;-78
2021/09/05 01:11:56;;;;;;;1.75;0.80;;;12.10;99.90;;;;;;4431129;32;20135;-78
2021/09/05 01:14:22;;;;;;;0.70;0.70;;;12.10;99.90;;;;;;4430208;32;20069;-79
2021/09/05 01:16:48;;;;;;;3.47;1.35;;;12.10;99.90;;;;;;4432175;32;20060;-79
2021/09/05 01:19:16;;;;;;;2.80;1.17;;;12.00;99.90;;;;;;4431601;32;20072;-78
2021/09/05 01:21:44;;;;;;;3.05;0.90;;;12.00;99.90;;;;;;4431245;32;20069;-79
2021/09/05 01:24:11;;;;;;;4.10;0.77;;;12.00;99.90;;;;;;4430945;32;20074;-78
2021/09/05 01:26:39;;;;;;;1.55;1.30;;;12.00;99.90;;;;;;4430893;32;20164;-78
2021/09/05 01:29:06;;;;;;;0.85;0.85;;;12.00;99.90;;;;;;4430146;32;20077;-79
2021/09/05 01:31:52;;;;;;;1.08;0.70;;;12.00;99.90;;;;;;4430526;32;20514;-79
2021/09/05 01:34:20;;;;;;;0.55;0.55;;;11.90;99.90;;;;;;4419379;32;20510;-78
2021/09/05 01:36:47;;;;;;;0.82;0.80;;;11.90;99.90;;;;;;4424555;32;20072;-80
2021/09/05 01:39:15;;;;;;;0.50;0.50;;;12.00;99.90;;;;;;4426085;32;20081;-79
2021/09/05 01:41:44;;;;;;;1.87;1.10;;;12.10;99.90;;;;;;4430584;32;20404;-79
2021/09/05 01:44:11;;;;;;;5.43;2.47;;;12.10;99.90;;;;;;4430691;32;20070;-79
2021/09/05 01:46:37;;;;;;;1.42;0.80;;;12.00;99.90;;;;;;4430223;32;20061;-80
2021/09/05 01:49:04;;;;;;;1.10;0.75;;;11.90;99.90;;;;;;4430255;32;20078;-79
2021/09/05 01:51:30;;;;;;;0.70;0.70;;;11.80;99.90;;;;;;4430979;32;20093;-79
2021/09/05 01:53:55;;;;;;;1.08;0.90;;;11.90;99.90;;;;;;4429937;32;20062;-78
2021/09/05 01:56:21;;;;;;;1.10;0.80;;;11.90;99.90;;;;;;4430506;32;20078;-78
2021/09/05 01:58:46;;;;;;;1.10;0.50;;;12.00;99.90;;;;;;4430302;32;20116;-79
2021/09/05 02:01:12;;;;;;;23.00;0.88;;;12.10;99.90;;;;;;4416179;32;20138;-79
2021/09/05 02:03:37;;;;;;;0.90;0.50;;;12.10;99.90;;;;;;4430726;32;20073;-79
2021/09/05 02:06:03;;;;;;;4.12;1.20;;;12.10;99.90;;;;;;4430324;32;20073;-79
2021/09/05 02:08:30;;;;;;;0.40;0.40;;;12.00;99.90;;;;;;4430918;32;20178;-79
2021/09/05 02:10:56;;;;;;;1.42;1.23;;;12.00;99.90;;;;;;4431309;32;20487;-79
2021/09/05 02:13:21;;;;;;;0.88;0.75;;;11.90;99.90;;;;;;4430102;32;20206;-79
2021/09/05 02:15:47;;;;;;;1.08;0.98;;;11.90;99.90;;;;;;4431236;32;20239;-80
2021/09/05 02:18:12;;;;;;;0.60;0.60;;;11.90;99.90;;;;;;4429832;32;20081;-79
2021/09/05 02:20:38;;;;;;;11.52;0.88;;;11.90;99.90;;;;;;4423314;32;20082;-78
2021/09/05 02:23:03;;;;;;;0.55;0.50;;;11.90;99.90;;;;;;4430520;32;20065;-79
2021/09/05 02:25:29;;;;;;;2.05;1.02;;;11.80;99.90;;;;;;4430898;32;20395;-79
2021/09/05 02:27:54;;;;;;;2.03;1.17;;;11.70;99.90;;;;;;4431257;32;20060;-79
2021/09/05 02:30:21;;;;;;;0.40;0.40;;;11.70;99.90;;;;;;4429712;32;20420;-78
2021/09/05 02:32:46;;;;;;;1.40;1.08;;;11.70;99.90;;;;;;4429709;32;20170;-78
2021/09/05 02:35:12;;;;;;;1.33;0.98;;;11.70;99.90;;;;;;4429258;32;20081;-78
2021/09/05 02:37:38;;;;;;;0.60;0.60;;;11.60;99.90;;;;;;4429997;32;20522;-80
2021/09/05 02:40:05;;;;;;;1.98;1.15;;;11.60;99.90;;;;;;4430981;32;20073;-79
2021/09/05 02:42:33;;;;;;;1.52;1.10;;;11.70;99.90;;;;;;4430887;32;20069;-79
2021/09/05 02:45:00;;;;;;;0.95;0.90;;;11.70;99.90;;;;;;4430194;32;20171;-79
2021/09/05 02:47:27;;;;;;;0.60;0.60;;;11.70;99.90;;;;;;4429712;32;20061;-79
2021/09/05 02:49:52;;;;;;;0.50;0.50;;;11.80;99.90;;;;;;4429849;32;20134;-78
2021/09/05 02:52:18;;;;;;;0.82;0.82;;;11.70;99.90;;;;;;4430622;32;20081;-79
2021/09/05 02:54:43;;;;;;;1.77;1.35;;;11.70;99.90;;;;;;4416054;32;20085;-79
2021/09/05 02:57:09;;;;;;;0.88;0.77;;;11.60;99.90;;;;;;4428890;32;20074;-79
2021/09/05 02:59:34;;;;;;;1.05;0.82;;;11.60;99.90;;;;;;4427581;32;20081;-80
2021/09/05 03:02:00;;;;;;;1.35;0.88;;;11.50;99.90;;;;;;4430856;32;20069;-79
2021/09/05 03:04:26;;;;;;;8.27;0.88;;;11.50;99.90;;;;;;4430975;32;20089;-79
2021/09/05 03:06:51;;;;;;;1.75;0.77;;;11.40;99.90;;;;;;4430553;32;20068;-79
2021/09/05 03:09:17;;;;;;;1.73;1.15;;;11.40;99.90;;;;;;4431403;32;20518;-79
2021/09/05 03:11:43;;;;;;;2.33;0.60;;;11.50;99.90;;;;;;4416763;32;20097;-79
2021/09/05 03:14:08;;;;;;;0.50;0.50;;;11.50;99.90;;;;;;4430548;32;20515;-79
2021/09/05 03:16:33;;;;;;;20.65;1.10;;;11.40;99.90;;;;;;4430929;32;20072;-79
2021/09/05 03:18:59;;;;;;;2.62;0.90;;;11.30;99.90;;;;;;4430616;32;20519;-78
2021/09/05 03:21:24;;;;;;;2.20;1.80;;;11.40;99.90;;;;;;4430023;32;20082;-79
2021/09/05 03:23:50;;;;;;;1.58;0.85;;;11.50;99.90;;;;;;4430141;32;20090;-79
2021/09/05 03:26:15;;;;;;;1.87;0.75;;;11.50;99.90;;;;;;4430222;32;20089;-78
2021/09/05 03:28:41;;;;;;;0.85;0.80;;;11.60;99.90;;;;;;4432233;32;20111;-79
2021/09/05 03:31:07;;;;;;;0.50;0.50;;;11.50;99.90;;;;;;4433898;32;20078;-79
2021/09/05 03:33:32;;;;;;;1.42;1.23;;;11.60;99.90;;;;;;4433259;32;20124;-79
2021/09/05 03:35:57;;;;;;;0.60;0.60;;;11.60;99.90;;;;;;4422384;32;20552;-78
2021/09/05 03:38:23;;;;;;;0.65;0.65;;;11.50;99.90;;;;;;4416970;32;20086;-79
2021/09/05 03:40:48;;;;;;;0.40;0.40;;;11.50;99.90;;;;;;4417072;32;20186;-79
2021/09/05 03:43:14;;;;;;;9.38;0.52;;;11.50;99.90;;;;;;4416752;32;20105;-78
2021/09/05 03:45:39;;;;;;;2.60;1.33;;;11.60;99.90;;;;;;4417160;32;20078;-78
2021/09/05 03:48:05;;;;;;;0.73;0.73;;;11.60;99.90;;;;;;4417100;32;20073;-79
2021/09/05 03:50:30;;;;;;;3.50;1.33;;;11.60;99.90;;;;;;4424929;32;20158;-79
2021/09/05 03:52:56;;;;;;;0.80;0.80;;;11.60;99.90;;;;;;4432170;32;20069;-78
2021/09/05 03:55:22;;;;;;;1.30;0.80;;;11.60;99.90;;;;;;4433231;32;20089;-79
2021/09/05 03:57:47;;;;;;;0.68;0.68;;;11.50;99.90;;;;;;4432409;32;20120;-79
2021/09/05 04:00:13;;;;;;;0.80;0.80;;;11.50;99.90;;;;;;4418221;32;20081;-78
2021/09/05 04:02:39;;;;;;;0.85;0.70;;;11.60;99.90;;;;;;4432079;32;20062;-79
2021/09/05 04:05:06;;;;;;;1.12;0.75;;;11.50;99.90;;;;;;4432730;32;20123;-80
2021/09/05 04:07:33;;;;;;;0.85;0.82;;;11.60;99.90;;;;;;4433726;32;20103;-79
2021/09/05 04:10:14;;;;;;;0.60;0.60;;;11.50;99.90;;;;;;4432860;32;20084;-79
2021/09/05 04:12:42;;;;;;;6.20;2.12;;;11.50;99.90;;;;;;4432083;32;20069;-79
2021/09/05 04:15:10;;;;;;;0.57;0.57;;;11.40;99.90;;;;;;4432356;32;20077;-78
2021/09/05 04:17:35;;;;;;;4.93;1.30;;;11.40;99.90;;;;;;4432339;32;20070;-79
2021/09/05 04:20:01;;;;;;;0.50;0.50;;;11.50;99.90;;;;;;4431893;32;20110;-80
2021/09/05 04:22:27;;;;;;;2.05;0.82;;;11.50;99.90;;;;;;4413053;32;20121;-79
2021/09/05 04:24:54;;;;;;;0.80;0.80;;;11.50;99.90;;;;;;4428858;32;20101;-78
2021/09/05 04:27:19;;;;;;;0.50;0.50;;;11.70;99.90;;;;;;4429399;32;20068;-79
2021/09/05 04:29:45;;;;;;;5.40;1.27;;;11.70;99.90;;;;;;4428413;32;20565;-79
2021/09/05 04:32:11;;;;;;;1.20;1.05;;;11.70;99.90;;;;;;4427814;32;20090;-79
2021/09/05 04:34:36;;;;;;;0.62;0.60;;;11.60;99.90;;;;;;4427859;32;20077;-79
2021/09/05 04:37:02;;;;;;;6.10;1.48;;;11.60;99.90;;;;;;4413258;32;20514;-79
2021/09/05 04:39:28;;;;;;;2.28;1.20;;;11.60;99.90;;;;;;4427368;32;20074;-79
2021/09/05 04:41:53;;;;;;;0.45;0.45;;;11.60;99.90;;;;;;4430296;32;20066;-80
2021/09/05 04:44:19;;;;;;;1.02;0.80;;;11.70;99.90;;;;;;4431659;32;20077;-79
2021/09/05 04:46:44;;;;;;;0.93;0.65;;;11.70;99.90;;;;;;4427987;32;20069;-78
2021/09/05 04:49:11;;;;;;;0.90;0.90;;;11.70;99.90;;;;;;4427679;32;20124;-79
2021/09/05 04:51:36;;;;;;;0.75;0.75;;;11.80;99.90;;;;;;4428793;32;20499;-79
2021/09/05 04:54:02;;;;;;;0.73;0.73;;;11.70;99.90;;;;;;4429314;32;20068;-79
2021/09/05 04:56:28;;;;;;;5.55;0.90;;;11.70;99.90;;;;;;4428881;32;20123;-80
2021/09/05 04:58:54;;;;;;;1.37;0.80;;;11.60;99.90;;;;;;4428951;32;20089;-79
2021/09/05 05:01:20;;;;;;;0.60;0.60;;;11.70;99.90;;;;;;4427597;32;20522;-79
2021/09/05 05:03:45;;;;;;;3.08;1.25;;;11.70;99.90;;;;;;4427877;32;20093;-79
2021/09/05 05:06:11;;;;;;;0.62;0.62;;;11.80;99.90;;;;;;4413450;32;20076;-79
2021/09/05 05:08:36;;;;;;;1.17;0.95;;;11.70;99.90;;;;;;4428276;32;20085;-79
2021/09/05 05:11:02;;;;;;;3.08;1.95;;;11.80;99.90;;;;;;4427428;32;20129;-79
2021/09/05 05:13:28;;;;;;;1.20;1.08;;;11.80;99.90;;;;;;4427515;32;20456;-80
2021/09/05 05:15:56;;;;;;;2.28;0.70;;;11.70;99.90;;;;;;4428802;32;20081;-79
2021/09/05 05:18:23;;;;;;;0.80;0.80;;;11.70;99.90;;;;;;4429057;32;20277;-79
2021/09/05 05:20:49;;;;;;;4.35;1.45;;;11.70;99.90;;;;;;4428000;32;20097;-80
2021/09/05 05:23:16;;;;;;;3.45;1.02;;;11.80;99.90;;;;;;4430796;32;20504;-79
2021/09/05 05:25:42;;;;;;;3.92;1.23;;;11.80;99.90;;;;;;4431599;32;20135;-79
2021/09/05 05:28:07;;;;;;;1.80;1.48;;;11.80;99.90;;;;;;4417140;32;20078;-78
2021/09/05 05:30:33;;;;;;;1.65;1.23;;;11.90;99.90;;;;;;4430897;32;20131;-79
2021/09/05 05:32:58;;;;;;;1.35;1.12;;;11.90;99.90;;;;;;4431796;32;20065;-79
2021/09/05 05:35:25;;;;;;;0.60;0.60;;;12.10;99.90;;;;;;4425169;32;20074;-79
2021/09/05 05:37:50;;;;;;;0.90;0.75;;;12.10;99.90;;;;;;4416828;32;20543;-80
2021/09/05 05:40:22;;;;;;;1.87;1.10;;;12.10;99.90;;;;;;4418106;32;20069;-79
2021/09/05 05:42:47;;;;;;;0.60;0.60;;;12.20;99.90;;;;;;4415691;32;20070;-79
2021/09/05 05:45:13;;;;;;;4.25;0.65;;;12.20;99.90;;;;;;4403011;32;20094;-79
2021/09/05 05:47:38;;;;;;;3.15;1.30;;;12.20;99.90;;;;;;4403006;32;20087;-79
2021/09/05 05:50:05;;;;;;;2.95;1.35;;;12.30;99.90;;;;;;4403432;32;20413;-79
2021/09/05 05:52:31;;;;;;;4.20;0.70;;;12.40;99.90;;;;;;4422250;32;20360;-79
2021/09/05 05:54:56;;;;;;;3.22;1.37;;;12.40;99.90;;;;;;4431350;32;20091;-79
2021/09/05 05:57:23;;;;;;;0.85;0.82;;;12.50;99.90;;;;;;4432017;32;20069;-79
2021/09/05 05:59:50;;;;;;;3.50;0.80;;;12.60;99.90;;;;;;4431564;32;20468;-79
2021/09/05 06:02:15;;;;;;;8.02;1.77;;;12.60;99.90;;;;;;4432597;32;20077;-79
2021/09/05 06:04:41;;;;;;;7.70;1.50;;;12.70;99.90;;;;;;4432270;32;20576;-80
2021/09/05 06:07:06;;;;;;;1.45;1.10;;;12.80;99.90;;;;;;4431033;32;20090;-79
2021/09/05 06:09:32;;;;;;;2.28;1.25;;;12.90;99.90;;;;;;4431573;32;20535;-80
2021/09/05 06:11:57;;;;;;;3.12;1.08;;;12.90;99.90;;;;;;4431700;32;20119;-79
2021/09/05 06:14:23;;;;;;;1.60;1.05;;;13.00;99.90;;;;;;4427805;32;20401;-79
2021/09/05 06:16:48;;;;;;;3.72;1.37;;;13.00;99.90;;;;;;4428075;32;20097;-78
2021/09/05 06:19:14;;;;;;;1.20;0.73;;;13.10;99.90;;;;;;4427176;32;20097;-79
2021/09/05 06:21:39;;;;;;;4.05;1.62;;;13.10;99.90;;;;;;4427552;32;20072;-80
2021/09/05 06:24:05;;;;;;;3.25;1.12;;;13.20;99.90;;;;;;4425880;32;79203;-80
2021/09/05 06:26:30;;;;;;;1.17;1.05;;;13.20;99.90;;;;;;4429749;32;20165;-80
2021/09/05 06:28:56;;;;;;;0.55;0.55;;;13.20;99.90;;;;;;4427000;32;20079;-79
2021/09/05 06:31:21;;;;;;;1.40;0.95;;;13.30;99.90;;;;;;4427605;32;20081;-79
2021/09/05 06:33:47;;;;;;;3.20;1.02;;;13.30;99.90;;;;;;4426722;32;20082;-79
2021/09/05 06:36:12;;;;;;;5.05;0.60;;;13.30;99.90;;;;;;4426670;32;20173;-79
2021/09/05 06:38:38;;;;;;;1.12;0.90;;;13.40;99.90;;;;;;4428392;32;20057;-79
2021/09/05 06:41:03;;;;;;;1.58;1.33;;;13.50;99.90;;;;;;4427192;32;20134;-78
2021/09/05 06:43:29;;;;;;;1.62;1.02;;;13.50;99.90;;;;;;4426913;32;20085;-80
2021/09/05 06:45:54;;;;;;;0.93;0.70;;;13.60;99.90;;;;;;4427423;32;20204;-79
2021/09/05 06:48:20;;;;;;;0.60;0.60;;;13.60;99.90;;;;;;4428187;32;20065;-78
2021/09/05 06:50:47;;;;;;;0.75;0.68;;;13.80;99.90;;;;;;4428321;32;20100;-79
2021/09/05 06:53:13;;;;;;;0.80;0.80;;;13.90;99.90;;;;;;4411823;32;20127;-79
2021/09/05 06:55:38;;;;;;;0.60;0.60;;;14.10;99.90;;;;;;4411152;32;20105;-78
2021/09/05 06:58:04;;;;;;;1.10;0.75;;;14.20;99.90;;;;;;4427528;32;20116;-78
2021/09/05 07:00:29;;;;;;;1.75;1.05;;;14.20;99.90;;;;;;4426029;32;20124;-79
2021/09/05 07:02:55;;;;;;;1.35;0.75;;;14.40;99.90;;;;;;4425927;32;20084;-81
2021/09/05 07:05:20;;;;;;;3.20;1.15;;;14.40;99.90;;;;;;4429909;32;20074;-80
2021/09/05 07:07:46;;;;;;;1.48;1.20;;;14.40;99.90;;;;;;4431726;32;20070;-80
2021/09/05 07:10:12;;;;;;;5.35;0.90;;;14.40;99.90;;;;;;4430613;32;20073;-80
2021/09/05 07:12:38;;;;;;;0.90;0.70;;;14.40;99.90;;;;;;4431679;32;20081;-79
2021/09/05 07:15:04;;;;;;;2.17;0.93;;;14.50;99.90;;;;;;4431433;32;20116;-80
2021/09/05 07:17:29;;;;;;;4.30;1.15;;;14.50;99.90;;;;;;4431848;32;20066;-80
2021/09/05 07:19:56;;;;;;;0.82;0.70;;;14.60;99.90;;;;;;4428936;32;20093;-80
2021/09/05 07:22:21;;;;;;;1.33;1.17;;;14.60;99.90;;;;;;4427634;32;20105;-80
2021/09/05 07:24:47;;;;;;;0.98;0.70;;;14.60;99.90;;;;;;4427311;32;20420;-80
2021/09/05 07:27:12;;;;;;;8.43;1.48;;;14.70;99.90;;;;;;4427460;32;20136;-80
2021/09/05 07:29:38;;;;;;;0.65;0.57;;;14.70;99.90;;;;;;4426777;32;20088;-80
2021/09/05 07:32:04;;;;;;;0.77;0.65;;;14.80;99.90;;;;;;4430093;32;20506;-80
2021/09/05 07:34:29;;;;;;;1.33;1.17;;;14.80;99.90;;;;;;4430488;32;20069;-79
2021/09/05 07:36:55;;;;;;;2.20;0.65;;;14.90;99.90;;;;;;4402000;32;20520;-79
2021/09/05 07:39:20;;;;;;;0.50;0.50;;;15.00;99.90;;;;;;4415700;32;20102;-79
2021/09/05 07:41:46;;;;;;;1.35;0.70;;;15.00;99.90;;;;;;4415662;32;20120;-79
2021/09/05 07:44:11;;;;;;;1.25;0.68;;;15.00;99.90;;;;;;4415413;32;20143;-79
2021/09/05 07:46:37;;;;;;;0.88;0.88;;;15.00;99.90;;;;;;4415024;32;20582;-79
2021/09/05 07:49:02;;;;;;;10.55;1.75;;;15.10;99.90;;;;;;4415685;32;20069;-79
2021/09/05 07:51:28;;;;;;;5.30;1.42;;;15.00;99.90;;;;;;4415263;32;20391;-79
2021/09/05 07:53:55;;;;;;;1.65;1.25;;;15.10;99.90;;;;;;4415487;32;20069;-79
2021/09/05 07:56:21;;;;;;;2.25;0.82;;;15.20;99.90;;;;;;4400016;32;20532;-79
2021/09/05 07:58:47;;;;;;;2.22;1.00;;;15.20;99.90;;;;;;4413506;32;20073;-78
2021/09/05 08:01:15;;;;;;;0.80;0.80;;;15.30;99.90;;;;;;4419364;32;20157;-78
2021/09/05 08:03:40;;;;;;;3.08;1.30;;;15.30;99.90;;;;;;4429654;32;20124;-78
2021/09/05 08:06:07;;;;;;;0.95;0.77;;;15.30;99.90;;;;;;4429184;32;20082;-77
2021/09/05 08:08:35;;;;;;;1.60;1.02;;;15.40;99.90;;;;;;4428828;32;20128;-78
2021/09/05 08:11:02;;;;;;;0.65;0.65;;;15.50;99.90;;;;;;4428740;32;20057;-78
2021/09/05 08:13:27;;;;;;;1.85;1.20;;;15.70;99.90;;;;;;4416758;32;20518;-77
2021/09/05 08:15:53;;;;;;;2.22;1.00;;;15.80;99.90;;;;;;4433617;32;20108;-77
2021/09/05 08:18:19;;;;;;;3.03;0.62;;;15.80;99.90;;;;;;4432831;32;20089;-77
2021/09/05 08:20:44;;;;;;;0.52;0.52;;;16.00;99.90;;;;;;4432461;32;20128;-77
2021/09/05 08:23:10;;;;;;;0.40;0.40;;;16.10;99.90;;;;;;4431384;32;20473;-77
2021/09/05 08:25:35;;;;;;;1.37;0.77;;;16.20;99.90;;;;;;4417488;32;20086;-77
2021/09/05 08:28:01;;;;;;;0.80;0.80;;;16.20;99.90;;;;;;4431583;32;20109;-77
2021/09/05 08:30:26;;;;;;;1.05;0.90;;;16.30;99.90;;;;;;4430697;32;20057;-77
2021/09/05 08:32:52;;;;;;;0.47;0.47;;;16.30;99.90;;;;;;4430765;32;20086;-77
2021/09/05 08:35:17;;;;;;;0.70;0.70;;;16.40;99.90;;;;;;4426555;32;20073;-77
2021/09/05 08:37:43;;;;;;;0.75;0.75;;;16.30;99.90;;;;;;4415894;32;20213;-77
2021/09/05 08:40:08;;;;;;;0.50;0.50;;;16.40;99.90;;;;;;4415978;32;20383;-77
2021/09/05 08:42:35;;;;;;;3.20;0.98;;;16.50;99.90;;;;;;4415551;32;20078;-77
2021/09/05 08:45:01;;;;;;;2.20;1.12;;;16.40;99.90;;;;;;4416124;32;20062;-77
2021/09/05 08:47:32;;;;;;;2.92;1.08;;;16.50;99.90;;;;;;4415710;32;20136;-77
2021/09/05 08:49:59;;;;;;;3.05;1.08;;;16.50;99.90;;;;;;4415542;32;20065;-77
2021/09/05 08:52:25;;;;;;;1.15;0.95;;;16.50;99.90;;;;;;4415876;32;20073;-77
2021/09/05 08:54:50;;;;;;;4.15;1.12;;;16.60;99.90;;;;;;4415058;32;20463;-77
2021/09/05 08:57:17;;;;;;;0.75;0.75;;;16.80;99.90;;;;;;4415484;32;20081;-77
2021/09/05 08:59:42;;;;;;;0.52;0.52;;;16.90;99.90;;;;;;4414938;32;20061;-77
2021/09/05 09:02:08;;;;;;;3.12;1.27;;;17.00;99.90;;;;;;4429289;32;20061;-77
2021/09/05 09:04:37;;;;;;;2.47;1.17;;;17.10;99.90;;;;;;4431494;32;20069;-77
2021/09/05 09:07:10;;;;;;;0.90;0.80;;;17.10;99.90;;;;;;4430451;32;20085;-77
2021/09/05 09:09:36;;;;;;;0.77;0.77;;;17.20;99.90;;;;;;4431073;32;20073;-77
2021/09/05 09:12:01;;;;;;;2.03;1.00;;;17.20;99.90;;;;;;4431353;32;20520;-77
2021/09/05 09:14:45;;;;;;;0.40;0.40;;;17.30;99.90;;;;;;4431144;32;20066;-77
2021/09/05 09:17:14;;;;;;;0.68;0.68;;;17.40;99.90;;;;;;4432717;32;20409;-77
2021/09/05 09:19:44;;;;;;;2.85;1.50;;;17.50;99.90;;;;;;4431241;32;20066;-77
2021/09/05 09:22:16;;;;;;;0.70;0.70;;;17.50;99.90;;;;;;4430624;32;20641;-77
2021/09/05 09:24:43;;;;;;;1.30;0.75;;;17.60;99.90;;;;;;4430921;32;20073;-77
2021/09/05 09:27:09;;;;;;;0.40;0.40;;;17.70;99.90;;;;;;4430733;32;20062;-77
2021/09/05 09:29:36;;;;;;;1.42;0.65;;;17.80;99.90;;;;;;4430410;32;20424;-78
2021/09/05 09:32:05;;;;;;;0.30;0.30;;;17.80;99.90;;;;;;4430028;32;20073;-78
2021/09/05 09:34:39;;;;;;;0.95;0.62;;;17.90;99.90;;;;;;4415194;32;20065;-78
2021/09/05 09:37:12;;;;;;;10.25;0.88;;;18.00;99.90;;;;;;4415402;32;20205;-78
2021/09/05 09:39:44;;;;;;;0.43;0.43;;;17.90;99.90;;;;;;4415012;32;20514;-78
2021/09/05 09:42:30;;;;;;;1.95;0.75;;;18.00;99.90;;;;;;4414947;32;20123;-78
2021/09/05 09:44:56;;;;;;;0.57;0.57;;;18.00;99.90;;;;;;4414924;32;20062;-78
2021/09/05 09:47:21;;;;;;;1.48;0.93;;;18.20;99.90;;;;;;4415146;32;20157;-78
2021/09/05 09:49:49;;;;;;;0.55;0.55;;;18.20;99.90;;;;;;4414821;32;20069;-77
2021/09/05 09:52:16;;;;;;;2.70;0.93;;;18.20;99.90;;;;;;4414832;32;20085;-77
2021/09/05 09:54:43;;;;;;;0.75;0.75;;;18.20;99.90;;;;;;4415712;32;20476;-77
2021/09/05 09:57:09;;;;;;;6.00;0.70;;;18.20;99.90;;;;;;4415045;32;20073;-78
2021/09/05 09:59:35;;;;;;;2.55;0.68;;;18.30;99.90;;;;;;4414822;32;20065;-78
2021/09/05 10:02:01;;;;;;;11.12;0.98;;;18.50;99.90;;;;;;4429409;32;20082;-78
2021/09/05 10:04:29;;;;;;;1.20;0.70;;;18.60;99.90;;;;;;4430399;32;20487;-77
2021/09/05 10:06:55;;;;;;;1.62;1.10;;;18.70;99.90;;;;;;4430016;32;20186;-78
2021/09/05 10:09:22;;;;;;;1.33;0.82;;;18.80;99.90;;;;;;4430218;32;20077;-77
2021/09/05 10:11:47;;;;;;;2.10;0.75;;;18.80;99.90;;;;;;4431775;32;20097;-77
2021/09/05 10:14:13;;;;;;;5.37;0.98;;;18.80;99.90;;;;;;4429631;32;20065;-77
2021/09/05 10:16:42;;;;;;;0.50;0.50;;;18.90;99.90;;;;;;4429631;32;20566;-77
2021/09/05 10:19:09;;;;;;;0.50;0.50;;;19.00;99.90;;;;;;4430973;32;20073;-77
2021/09/05 10:21:36;;;;;;;0.73;0.73;;;19.10;99.90;;;;;;4430106;32;20120;-78
2021/09/05 10:24:02;;;;;;;2.83;1.02;;;19.20;99.90;;;;;;4429904;32;20678;-78
2021/09/05 10:26:29;;;;;;;1.48;0.93;;;19.40;99.90;;;;;;4430016;32;20085;-78
2021/09/05 10:28:58;;;;;;;0.47;0.47;;;19.50;99.90;;;;;;4429271;32;20089;-77
2021/09/05 10:31:38;;;;;;;0.57;0.57;;;19.60;99.90;;;;;;4429212;32;20093;-78
2021/09/05 10:34:04;;;;;;;1.00;0.90;;;19.70;99.90;;;;;;4429572;32;20084;-78
2021/09/05 10:36:41;;;;;;;3.55;0.77;;;19.80;99.90;;;;;;4416347;32;20128;-78
2021/09/05 10:39:09;;;;;;;0.70;0.70;;;20.20;99.90;;;;;;4413910;32;20074;-77
2021/09/05 10:41:49;;;;;;;0.62;0.50;;;20.40;99.90;;;;;;4414699;32;20077;-77
2021/09/05 10:44:14;;;;;;;0.73;0.70;;;20.40;99.90;;;;;;4413830;32;20401;-77
2021/09/05 10:46:46;;;;;;;0.73;0.57;;;20.40;99.90;;;;;;4413902;32;20090;-77
2021/09/05 10:49:12;;;;;;;2.22;1.23;;;20.20;99.90;;;;;;4414064;32;20069;-78
2021/09/05 10:51:47;;;;;;;4.32;1.12;;;20.30;99.90;;;;;;4414538;32;20425;-78
2021/09/05 10:54:22;;;;;;;0.52;0.52;;;20.60;99.90;;;;;;4414115;32;20523;-78
2021/09/05 10:56:47;;;;;;;1.65;0.95;;;20.80;99.90;;;;;;4414113;32;20162;-78
2021/09/05 10:59:18;;;;;;;0.40;0.40;;;20.80;99.90;;;;;;4414146;32;20062;-77
2021/09/05 11:01:49;;;;;;;2.72;0.80;;;20.80;99.90;;;;;;4424936;32;20469;-78
2021/09/05 11:04:18;;;;;;;1.25;0.93;;;20.80;99.90;;;;;;4426438;32;20085;-77
2021/09/05 11:07:01;;;;;;;0.75;0.75;;;20.80;99.90;;;;;;4426217;32;20176;-77
2021/09/05 11:09:29;;;;;;;2.72;1.35;;;21.00;99.90;;;;;;4425264;32;20113;-78
2021/09/05 11:12:00;;;;;;;4.40;1.00;;;21.40;99.90;;;;;;4410823;32;20068;-78
2021/09/05 11:14:47;;;;;;;1.05;0.80;;;21.70;99.90;;;;;;4424273;32;20435;-77
2021/09/05 11:17:32;;;;;;;0.98;0.73;;;22.20;99.90;;;;;;4424284;32;20081;-77
2021/09/05 11:20:00;;;;;;;0.57;0.52;;;22.40;99.90;;;;;;4426879;32;20077;-78
2021/09/05 11:22:35;;;;;;;0.73;0.73;;;22.50;99.90;;;;;;4428763;32;20585;-77
2021/09/05 11:25:21;;;;;;;0.37;0.37;;;22.50;99.90;;;;;;4415407;32;20069;-77
2021/09/05 11:27:51;;;;;;;1.30;1.02;;;22.50;99.90;;;;;;4416705;32;20119;-78
2021/09/05 11:30:18;;;;;;;0.30;0.30;;;22.50;99.90;;;;;;4427168;32;20064;-78
2021/09/05 11:32:43;;;;;;;0.93;0.57;;;22.30;99.90;;;;;;4413855;32;20101;-77
2021/09/05 11:35:10;;;;;;;1.35;0.62;;;22.60;99.90;;;;;;4421358;32;20098;-77
2021/09/05 11:37:39;;;;;;;0.55;0.43;;;22.90;99.90;;;;;;4421810;32;20415;-77
2021/09/05 11:40:16;;;;;;;0.77;0.50;;;22.60;99.90;;;;;;4427662;32;20089;-77
2021/09/05 11:42:45;;;;;;;0.25;0.25;;;22.60;99.90;;;;;;4426932;32;20083;-78
2021/09/05 11:45:12;;;;;;;0.65;0.65;;;22.90;99.90;;;;;;4417967;32;20136;-77
2021/09/05 11:47:39;;;;;;;0.45;0.45;;;23.10;99.90;;;;;;4414599;32;20062;-77
2021/09/05 11:50:05;;;;;;;0.60;0.60;;;23.20;99.90;;;;;;4428406;32;20068;-77
2021/09/05 11:52:33;;;;;;;0.30;0.30;;;23.20;99.90;;;;;;4430782;32;20158;-77
2021/09/05 11:55:06;;;;;;;0.50;0.50;;;23.20;99.90;;;;;;4430731;32;20069;-77
2021/09/05 11:57:33;;;;;;;0.62;0.40;;;23.40;99.90;;;;;;4430812;32;20595;-77
2021/09/05 12:00:03;;;;;;;0.55;0.55;;;23.20;99.90;;;;;;4416160;32;20124;-77
2021/09/05 12:02:32;;;;;;;2.70;1.08;;;23.10;99.90;;;;;;4427666;32;20546;-77
2021/09/05 12:04:58;;;;;;;0.30;0.30;;;23.10;99.90;;;;;;4415179;32;20094;-77
2021/09/05 12:07:26;;;;;;;0.62;0.50;;;23.10;99.90;;;;;;4416111;32;20062;-77
2021/09/05 12:10:11;;;;;;;1.23;0.70;;;23.20;99.90;;;;;;4415112;32;20135;-78
2021/09/05 12:12:40;;;;;;;1.02;0.88;;;23.40;99.90;;;;;;4416175;32;20073;-78
2021/09/05 12:15:19;;;;;;;0.90;0.60;;;23.40;99.90;;;;;;4415115;32;20503;-77
2021/09/05 12:17:48;;;;;;;0.32;0.32;;;23.20;99.90;;;;;;4415421;32;20495;-78
2021/09/05 12:20:16;;;;;;;0.30;0.30;;;23.50;99.90;;;;;;4415686;32;20120;-78
2021/09/05 12:22:47;;;;;;;2.50;1.05;;;24.00;99.90;;;;;;4414940;32;20065;-78
2021/09/05 12:25:17;;;;;;;0.40;0.40;;;24.80;99.90;;;;;;4414284;32;20078;-78
2021/09/05 12:28:03;;;;;;;0.55;0.45;;;25.00;99.90;;;;;;4415091;32;20091;-78
2021/09/05 12:30:34;;;;;;;1.45;0.70;;;25.80;99.90;;;;;;4418152;32;20070;-78
2021/09/05 12:33:03;;;;;;;0.77;0.25;;;25.90;99.50;;;;;;4428070;32;20097;-78
2021/09/05 12:35:28;;;;;;;2.05;1.15;;;26.30;98.90;;;;;;4425681;32;20089;-78
2021/09/05 12:38:15;;;;;;;0.65;0.35;;;26.40;99.10;;;;;;4427277;32;20085;-78
2021/09/05 12:40:44;;;;;;;0.90;0.77;;;26.30;98.30;;;;;;4406369;32;20073;-78
2021/09/05 12:43:12;;;;;;;0.65;0.47;;;26.10;98.50;;;;;;4438393;32;20069;-78
2021/09/05 12:45:49;;;;;;;1.30;0.68;;;26.10;98.60;;;;;;4444545;32;20085;-78